Time;durP1;ratioP1;P1;durP2;ratioP2;P2;SDS_P1;SDS_P2;PMS_P1;PMS_P2;Temp;Humidity;BMP_temperature;BMP_pressure;BME280_temperature;BME280_humidity;BME280_pressure;Samples;Min_cycle;Max_cycle;Signal;HPM_P1;HPM_P2
2023/06/04 00:00:06;;;;;;;5.40;2.05;;;;;;;;;;5031570;28;20053;-85
2023/06/04 00:02:32;;;;;;;5.35;2.35;;;;;;;;;;5015330;28;20052;-85
2023/06/04 00:04:58;;;;;;;9.02;1.90;;;;;;;;;;5050101;28;20069;-85
2023/06/04 00:07:25;;;;;;;5.80;2.10;;;;;;;;;;5031949;28;20399;-85
2023/06/04 00:09:51;;;;;;;4.65;2.28;;;;;;;;;;5038606;28;20279;-85
2023/06/04 00:12:17;;;;;;;4.78;2.30;;;;;;;;;;5051749;28;20053;-85
2023/06/04 00:14:43;;;;;;;;;;;;;;;;;;5034716;28;20048;-85
2023/06/04 00:17:09;;;;;;;5.75;2.10;;;;;;;;;;5051577;28;19967;-85
2023/06/04 00:19:36;;;;;;;5.47;2.00;;;;;;;;;;5033831;28;20083;-84
2023/06/04 00:22:02;;;;;;;;;;;;;;;;;;5047997;28;20041;-84
2023/06/04 00:24:28;;;;;;;6.38;2.30;;;;;;;;;;5014899;28;20339;-85
2023/06/04 00:26:54;;;;;;;7.25;2.65;;;;;;;;;;5014904;28;20127;-84
2023/06/04 00:29:20;;;;;;;6.60;2.28;;;;;;;;;;4998756;28;20085;-84
2023/06/04 00:31:46;;;;;;;9.25;2.70;;;;;;;;;;5014691;28;20096;-84
2023/06/04 00:34:12;;;;;;;6.13;2.60;;;;;;;;;;4998208;28;20395;-85
2023/06/04 00:36:39;;;;;;;6.13;2.70;;;;;;;;;;5014411;28;20045;-85
2023/06/04 00:39:05;;;;;;;6.47;2.72;;;;;;;;;;5031401;28;20064;-84
2023/06/04 00:41:31;;;;;;;5.45;2.53;;;;;;;;;;5063563;28;20529;-85
2023/06/04 00:43:57;;;;;;;5.97;2.50;;;;;;;;;;5062591;28;20045;-85
2023/06/04 00:46:27;;;;;;;9.70;2.67;;;;;;;;;;5054162;28;20049;-85
2023/06/04 00:48:54;;;;;;;9.13;3.08;;;;;;;;;;5029777;28;20062;-85
2023/06/04 00:51:21;;;;;;;6.38;2.97;;;;;;;;;;5014656;28;20499;-84
2023/06/04 00:53:47;;;;;;;8.38;2.78;;;;;;;;;;5031076;28;20057;-85
2023/06/04 00:56:13;;;;;;;7.47;2.70;;;;;;;;;;5017576;28;20045;-84
2023/06/04 00:58:40;;;;;;;9.73;3.33;;;;;;;;;;5034434;28;20041;-85
2023/06/04 01:01:13;;;;;;;6.32;3.10;;;;;;;;;;5031116;28;20576;-85
2023/06/04 01:03:43;;;;;;;10.82;3.38;;;;;;;;;;5030192;28;20123;-85
2023/06/04 01:06:09;;;;;;;11.63;3.00;;;;;;;;;;5031179;28;20049;-85
2023/06/04 01:08:35;;;;;;;11.45;2.70;;;;;;;;;;5031246;28;20037;-84
2023/06/04 01:11:01;;;;;;;12.05;3.22;;;;;;;;;;5031028;28;20045;-85
2023/06/04 01:13:27;;;;;;;9.30;2.88;;;;;;;;;;5031176;28;20056;-85
2023/06/04 01:15:53;;;;;;;10.90;3.38;;;;;;;;;;5030637;28;20053;-86
2023/06/04 01:18:28;;;;;;;9.73;3.40;;;;;;;;;;4998025;28;20133;-85
2023/06/04 01:20:58;;;;;;;11.95;3.30;;;;;;;;;;5030673;28;20053;-84
2023/06/04 01:23:33;;;;;;;10.23;3.28;;;;;;;;;;5030887;28;20042;-84
2023/06/04 01:26:02;;;;;;;10.55;3.58;;;;;;;;;;5030888;28;20092;-84
2023/06/04 01:28:29;;;;;;;7.55;3.15;;;;;;;;;;5034275;28;20049;-83
2023/06/04 01:30:56;;;;;;;9.95;3.28;;;;;;;;;;5034363;28;20044;-85
2023/06/04 01:33:22;;;;;;;10.70;3.03;;;;;;;;;;5017886;28;20111;-84
2023/06/04 01:35:49;;;;;;;10.65;3.63;;;;;;;;;;5034126;28;20045;-84
2023/06/04 01:38:15;;;;;;;11.65;3.67;;;;;;;;;;5034454;28;20049;-84
2023/06/04 01:40:41;;;;;;;;;;;;;;;;;;5046240;28;20405;-85
2023/06/04 01:43:08;;;;;;;9.52;3.55;;;;;;;;;;5037447;28;19921;-86
2023/06/04 01:45:34;;;;;;;11.20;3.33;;;;;;;;;;5037561;28;20390;-84
2023/06/04 01:48:00;;;;;;;;;;;;;;;;;;5053931;28;20190;-84
2023/06/04 01:50:26;;;;;;;7.78;3.25;;;;;;;;;;5053844;28;20358;-84
2023/06/04 01:52:52;;;;;;;11.32;3.72;;;;;;;;;;5037254;28;20045;-84
2023/06/04 01:55:18;;;;;;;;;;;;;;;;;;5037687;28;20103;-84
2023/06/04 01:57:45;;;;;;;8.52;3.33;;;;;;;;;;5053632;28;19927;-84
2023/06/04 02:00:12;;;;;;;15.13;4.25;;;;;;;;;;5036203;28;20140;-84
2023/06/04 02:02:38;;;;;;;9.55;3.53;;;;;;;;;;5051958;28;20052;-84
2023/06/04 02:05:07;;;;;;;9.88;3.80;;;;;;;;;;5036283;28;20064;-84
2023/06/04 02:07:38;;;;;;;12.45;3.80;;;;;;;;;;5037391;28;20523;-85
2023/06/04 02:10:08;;;;;;;15.70;4.07;;;;;;;;;;5053329;28;20049;-84
2023/06/04 02:12:34;;;;;;;8.23;3.90;;;;;;;;;;5037102;28;20425;-84
2023/06/04 02:15:00;;;;;;;11.18;3.80;;;;;;;;;;5053398;28;20110;-84
2023/06/04 02:17:26;;;;;;;10.23;4.05;;;;;;;;;;5036653;28;20127;-85
2023/06/04 02:19:52;;;;;;;16.00;4.32;;;;;;;;;;5036297;28;20402;-84
2023/06/04 02:22:18;;;;;;;12.57;4.07;;;;;;;;;;5033930;28;20059;-84
2023/06/04 02:24:44;;;;;;;14.10;4.47;;;;;;;;;;5042271;28;20046;-89
2023/06/04 02:27:11;;;;;;;10.50;4.25;;;;;;;;;;5031822;28;20096;-85
2023/06/04 02:29:37;;;;;;;8.60;4.20;;;;;;;;;;5033186;28;20053;-84
2023/06/04 02:32:06;;;;;;;14.43;4.50;;;;;;;;;;5033345;28;20060;-84
2023/06/04 02:34:33;;;;;;;11.40;4.03;;;;;;;;;;5016624;28;20697;-84
2023/06/04 02:37:00;;;;;;;13.85;4.55;;;;;;;;;;5033027;28;20052;-84
2023/06/04 02:39:26;;;;;;;12.45;4.30;;;;;;;;;;5032978;28;20565;-84
2023/06/04 02:41:52;;;;;;;;;;;;;;;;;;5049577;28;20056;-84
2023/06/04 02:44:18;;;;;;;12.13;4.00;;;;;;;;;;5052675;28;20747;-83
2023/06/04 02:46:44;;;;;;;13.43;4.50;;;;;;;;;;5035697;28;20045;-86
2023/06/04 02:49:13;;;;;;;;;;;;;;;;;;5036238;28;20139;-85
2023/06/04 02:51:42;;;;;;;10.05;4.03;;;;;;;;;;5052995;28;19967;-84
2023/06/04 02:54:09;;;;;;;15.05;4.65;;;;;;;;;;5052542;28;20141;-83
2023/06/04 02:56:35;;;;;;;11.68;4.13;;;;;;;;;;5051905;28;20045;-85
2023/06/04 02:59:01;;;;;;;13.43;4.57;;;;;;;;;;5085415;28;20041;-84
2023/06/04 03:01:27;;;;;;;12.07;4.05;;;;;;;;;;5052653;28;20056;-84
2023/06/04 03:03:54;;;;;;;10.90;4.57;;;;;;;;;;5051461;28;20057;-84
2023/06/04 03:06:21;;;;;;;9.98;4.00;;;;;;;;;;5036111;28;20049;-84
2023/06/04 03:08:48;;;;;;;12.85;4.65;;;;;;;;;;5049325;28;20052;-86
2023/06/04 03:11:14;;;;;;;10.23;3.95;;;;;;;;;;5016102;28;20372;-84
2023/06/04 03:13:40;;;;;;;13.68;4.32;;;;;;;;;;5032218;28;20057;-84
2023/06/04 03:16:10;;;;;;;;;;;;;;;;;;5014858;28;20491;-86
2023/06/04 03:18:37;;;;;;;17.60;4.53;;;;;;;;;;5031072;28;19964;-84
2023/06/04 03:21:03;;;;;;;15.90;4.72;;;;;;;;;;5031759;28;20479;-84
2023/06/04 03:23:30;;;;;;;10.15;4.75;;;;;;;;;;5048330;28;20544;-84
2023/06/04 03:25:56;;;;;;;15.10;4.30;;;;;;;;;;5032363;28;20052;-84
2023/06/04 03:28:22;;;;;;;11.77;4.78;;;;;;;;;;5013018;28;20056;-84
2023/06/04 03:30:48;;;;;;;14.30;4.75;;;;;;;;;;5015732;28;20041;-87
2023/06/04 03:33:14;;;;;;;15.60;4.55;;;;;;;;;;5031724;28;20048;-84
2023/06/04 03:35:41;;;;;;;11.73;4.45;;;;;;;;;;5015447;28;20382;-83
2023/06/04 03:38:07;;;;;;;15.15;4.85;;;;;;;;;;5015468;28;20056;-84
2023/06/04 03:40:33;;;;;;;14.73;4.97;;;;;;;;;;5032241;28;20038;-84
2023/06/04 03:43:00;;;;;;;18.58;5.28;;;;;;;;;;5031727;28;20387;-84
2023/06/04 03:45:26;;;;;;;13.15;5.18;;;;;;;;;;5015857;28;20052;-83
2023/06/04 03:47:52;;;;;;;;;;;;;;;;;;5048769;28;20449;-84
2023/06/04 03:50:18;;;;;;;14.20;4.93;;;;;;;;;;5014761;28;19921;-84
2023/06/04 03:52:45;;;;;;;16.60;4.90;;;;;;;;;;5032029;28;20049;-85
2023/06/04 03:55:11;;;;;;;;;;;;;;;;;;5032026;28;20477;-85
2023/06/04 03:57:38;;;;;;;12.18;5.10;;;;;;;;;;5031677;28;19932;-84
2023/06/04 04:00:05;;;;;;;16.83;5.32;;;;;;;;;;5014494;28;20048;-84
2023/06/04 04:02:31;;;;;;;14.43;5.20;;;;;;;;;;5047372;28;20049;-85
2023/06/04 04:04:57;;;;;;;;;;;;;;;;;;5046311;28;20054;-85
2023/06/04 04:07:24;;;;;;;11.98;4.97;;;;;;;;;;5030437;28;19947;-85
2023/06/04 04:09:51;;;;;;;15.07;4.82;;;;;;;;;;5047843;28;20052;-87
2023/06/04 04:12:17;;;;;;;15.13;5.25;;;;;;;;;;5040905;28;20056;-84
2023/06/04 04:14:43;;;;;;;11.43;4.80;;;;;;;;;;5018699;28;20124;-84
2023/06/04 04:17:09;;;;;;;17.40;5.78;;;;;;;;;;5050915;28;20048;-85
2023/06/04 04:19:36;;;;;;;12.52;5.78;;;;;;;;;;5050743;28;20048;-85
2023/06/04 04:22:02;;;;;;;19.27;5.60;;;;;;;;;;5034995;28;20049;-84
2023/06/04 04:24:28;;;;;;;14.93;5.40;;;;;;;;;;5031541;28;20486;-84
2023/06/04 04:26:54;;;;;;;;;;;;;;;;;;5031822;28;20049;-85
2023/06/04 04:29:22;;;;;;;15.55;5.60;;;;;;;;;;5015089;28;19921;-84
2023/06/04 04:31:52;;;;;;;11.75;5.28;;;;;;;;;;5015118;28;20056;-86
2023/06/04 04:34:21;;;;;;;14.15;5.38;;;;;;;;;;5030612;28;20046;-85
2023/06/04 04:36:53;;;;;;;11.65;5.65;;;;;;;;;;5013699;28;20049;-84
2023/06/04 04:39:24;;;;;;;13.93;5.47;;;;;;;;;;5031880;28;20049;-84
2023/06/04 04:41:50;;;;;;;14.07;4.78;;;;;;;;;;5031347;28;20394;-84
2023/06/04 04:44:16;;;;;;;;;;;;;;;;;;5031155;28;20486;-84
2023/06/04 04:46:42;;;;;;;15.73;5.68;;;;;;;;;;5031544;28;19940;-84
2023/06/04 04:49:08;;;;;;;13.93;5.20;;;;;;;;;;5030498;28;20103;-84
2023/06/04 04:51:34;;;;;;;;;;;;;;;;;;5048512;28;20132;-86
2023/06/04 04:54:00;;;;;;;13.13;5.00;;;;;;;;;;5022099;28;20358;-85
2023/06/04 04:56:27;;;;;;;11.77;5.63;;;;;;;;;;5051305;28;20127;-84
2023/06/04 04:58:53;;;;;;;12.30;5.32;;;;;;;;;;5034409;28;20044;-87
2023/06/04 05:01:19;;;;;;;13.10;5.35;;;;;;;;;;5034466;28;20072;-84
2023/06/04 05:03:45;;;;;;;;;;;;;;;;;;5038239;28;20061;-84
2023/06/04 05:06:12;;;;;;;12.18;5.15;;;;;;;;;;5037656;28;19924;-84
2023/06/04 05:08:38;;;;;;;11.60;6.00;;;;;;;;;;5037202;28;20149;-84
2023/06/04 05:11:04;;;;;;;;;;;;;;;;;;5055181;28;20190;-85
2023/06/04 05:13:30;;;;;;;11.85;4.68;;;;;;;;;;5038041;28;20011;-85
2023/06/04 05:15:56;;;;;;;;;;;;;;;;;;5034889;28;20056;-88
2023/06/04 05:18:28;;;;;;;13.32;5.22;;;;;;;;;;5053752;28;19928;-85
2023/06/04 05:20:54;;;;;;;10.77;5.28;;;;;;;;;;5037900;28;20049;-85
2023/06/04 05:23:21;;;;;;;9.73;5.20;;;;;;;;;;5021461;28;20044;-85
2023/06/04 05:25:48;;;;;;;;;;;;;;;;;;5037469;28;20045;-86
2023/06/04 05:28:15;;;;;;;16.58;5.13;;;;;;;;;;5037499;28;20729;-84
2023/06/04 05:30:41;;;;;;;14.90;4.88;;;;;;;;;;5054674;28;20052;-84
2023/06/04 05:33:17;;;;;;;14.15;5.85;;;;;;;;;;5037403;28;20049;-85
2023/06/04 05:35:46;;;;;;;10.30;4.88;;;;;;;;;;5054314;28;20040;-84
2023/06/04 05:38:18;;;;;;;12.98;5.32;;;;;;;;;;5043165;28;20711;-85
2023/06/04 05:40:45;;;;;;;11.38;4.97;;;;;;;;;;5065569;28;20053;-84
2023/06/04 05:43:12;;;;;;;11.45;5.57;;;;;;;;;;5051612;28;20505;-84
2023/06/04 05:45:38;;;;;;;15.95;5.63;;;;;;;;;;5053347;28;20072;-85
2023/06/04 05:48:04;;;;;;;13.50;5.65;;;;;;;;;;5031520;28;20045;-86
2023/06/04 05:50:31;;;;;;;15.95;6.10;;;;;;;;;;5033788;28;20041;-84
2023/06/04 05:52:57;;;;;;;13.75;5.72;;;;;;;;;;5017822;28;20509;-86
2023/06/04 05:55:23;;;;;;;13.70;5.70;;;;;;;;;;5017219;28;20087;-86
2023/06/04 05:57:52;;;;;;;10.55;5.00;;;;;;;;;;5033821;28;20552;-84
2023/06/04 06:00:19;;;;;;;14.10;5.75;;;;;;;;;;5033760;28;20048;-85
2023/06/04 06:02:45;;;;;;;10.68;4.85;;;;;;;;;;5028923;28;20059;-84
2023/06/04 06:05:11;;;;;;;12.38;5.57;;;;;;;;;;5033247;28;20490;-85
2023/06/04 06:07:37;;;;;;;11.65;4.53;;;;;;;;;;5017660;28;20053;-84
2023/06/04 06:10:03;;;;;;;;;;;;;;;;;;5034102;28;20049;-84
2023/06/04 06:12:29;;;;;;;8.88;4.32;;;;;;;;;;5033402;28;20312;-85
2023/06/04 06:14:56;;;;;;;;;;;;;;;;;;5049886;28;20465;-85
2023/06/04 06:17:22;;;;;;;12.10;4.55;;;;;;;;;;5053148;28;19928;-85
2023/06/04 06:19:48;;;;;;;12.80;4.95;;;;;;;;;;5053375;28;20053;-85
2023/06/04 06:22:15;;;;;;;;;;;;;;;;;;5053835;28;20455;-85
2023/06/04 06:24:41;;;;;;;14.20;5.72;;;;;;;;;;5039649;28;20329;-86
2023/06/04 06:27:08;;;;;;;13.05;5.35;;;;;;;;;;5049973;28;20136;-86
2023/06/04 06:29:34;;;;;;;9.68;4.55;;;;;;;;;;5066839;28;20095;-84
2023/06/04 06:32:00;;;;;;;13.65;4.80;;;;;;;;;;5066600;28;20433;-85
2023/06/04 06:34:26;;;;;;;11.45;4.57;;;;;;;;;;5065031;28;20050;-84
2023/06/04 06:36:52;;;;;;;7.82;3.60;;;;;;;;;;5048344;28;20055;-85
2023/06/04 06:39:18;;;;;;;10.02;4.07;;;;;;;;;;5068634;28;20394;-84
2023/06/04 06:41:45;;;;;;;13.93;4.70;;;;;;;;;;5036627;28;20063;-84
2023/06/04 06:44:11;;;;;;;10.45;4.05;;;;;;;;;;5052592;28;20095;-86
2023/06/04 06:46:37;;;;;;;8.00;3.20;;;;;;;;;;5036425;28;20048;-85
2023/06/04 06:49:04;;;;;;;9.35;3.35;;;;;;;;;;5036040;28;20048;-86
2023/06/04 06:51:30;;;;;;;8.43;3.50;;;;;;;;;;5053021;28;20041;-84
2023/06/04 06:53:56;;;;;;;;;;;;;;;;;;5037105;28;20050;-84
2023/06/04 06:56:22;;;;;;;5.90;2.47;;;;;;;;;;5052652;28;19920;-85
2023/06/04 06:58:48;;;;;;;8.65;3.33;;;;;;;;;;5052638;28;20037;-84
2023/06/04 07:01:15;;;;;;;;;;;;;;;;;;5052927;28;20135;-84
2023/06/04 07:03:41;;;;;;;10.87;3.40;;;;;;;;;;5051726;28;20009;-85
2023/06/04 07:06:07;;;;;;;;;;;;;;;;;;5052455;28;20444;-85
2023/06/04 07:08:33;;;;;;;9.40;2.92;;;;;;;;;;5031897;28;20008;-85
2023/06/04 07:11:03;;;;;;;8.27;2.85;;;;;;;;;;5016248;28;20483;-85
2023/06/04 07:13:31;;;;;;;8.80;3.05;;;;;;;;;;5027173;28;20075;-85
2023/06/04 07:15:58;;;;;;;6.60;2.90;;;;;;;;;;5034057;28;20137;-74
2023/06/04 07:18:24;;;;;;;6.30;2.63;;;;;;;;;;5049160;28;20486;-74
2023/06/04 07:20:52;;;;;;;;;;;;;;;;;;5050847;28;20056;-74
2023/06/04 07:23:18;;;;;;;4.30;2.40;;;;;;;;;;5051086;28;19966;-74
2023/06/04 07:25:44;;;;;;;7.45;2.50;;;;;;;;;;5048134;28;20045;-74
2023/06/04 07:28:10;;;;;;;;;;;;;;;;;;5044389;28;20583;-74
2023/06/04 07:30:38;;;;;;;8.25;2.38;;;;;;;;;;5037521;28;20362;-82
2023/06/04 07:33:04;;;;;;;5.28;2.30;;;;;;;;;;5032441;28;20048;-81
2023/06/04 07:35:30;;;;;;;;;;;;;;;;;;5048325;28;20037;-80
2023/06/04 07:37:56;;;;;;;5.53;2.25;;;;;;;;;;5050369;28;19925;-81
2023/06/04 07:40:22;;;;;;;9.00;2.42;;;;;;;;;;5082633;28;20513;-80
2023/06/04 07:42:48;;;;;;;;;;;;;;;;;;5051160;28;20436;-80
2023/06/04 07:45:15;;;;;;;9.07;2.53;;;;;;;;;;5032140;28;19925;-81
2023/06/04 07:47:41;;;;;;;4.47;2.25;;;;;;;;;;5082452;28;20052;-80
2023/06/04 07:50:07;;;;;;;;;;;;;;;;;;5027992;28;20053;-80
2023/06/04 07:52:33;;;;;;;3.42;1.75;;;;;;;;;;5012810;28;20354;-80
2023/06/04 07:54:59;;;;;;;;;;;;;;;;;;5013571;28;20052;-81
2023/06/04 07:57:25;;;;;;;4.03;2.05;;;;;;;;;;5012128;28;19921;-82
2023/06/04 07:59:52;;;;;;;7.03;2.22;;;;;;;;;;5069977;28;20390;-82
2023/06/04 08:02:17;;;;;;;;;;;;;;;;;;5030772;28;20061;-81
2023/06/04 08:04:45;;;;;;;6.35;2.17;;;;;;;;;;5060399;28;19925;-80
2023/06/04 08:07:11;;;;;;;5.97;2.00;;;;;;;;;;5029265;28;20056;-82
2023/06/04 08:09:37;;;;;;;;;;;;;;;;;;5032953;28;20049;-81
2023/06/04 08:12:03;;;;;;;6.88;2.08;;;;;;;;;;5049873;28;19924;-70
2023/06/04 08:14:29;;;;;;;;;;;;;;;;;;5050187;28;20084;-70
2023/06/04 08:16:55;;;;;;;5.35;2.13;;;;;;;;;;5033830;28;19925;-67
2023/06/04 08:19:21;;;;;;;5.30;1.80;;;;;;;;;;5027712;28;20049;-67
2023/06/04 08:21:47;;;;;;;;;;;;;;;;;;5043764;28;20199;-66
2023/06/04 08:24:14;;;;;;;7.85;2.42;;;;;;;;;;5029788;28;20386;-84
2023/06/04 08:26:40;;;;;;;3.40;1.95;;;;;;;;;;5031692;28;20045;-85
2023/06/04 08:29:06;;;;;;;;;;;;;;;;;;5037283;28;20072;-85
2023/06/04 08:31:32;;;;;;;9.27;1.90;;;;;;;;;;5033274;28;19964;-85
2023/06/04 08:33:58;;;;;;;8.13;2.00;;;;;;;;;;5051177;28;20442;-86
2023/06/04 08:36:24;;;;;;;;;;;;;;;;;;5059695;28;20133;-85
2023/06/04 08:38:52;;;;;;;4.22;1.95;;;;;;;;;;5035327;28;19996;-86
2023/06/04 08:41:29;;;;;;;6.43;1.70;;;;;;;;;;5028263;28;20053;-85
2023/06/04 08:43:57;;;;;;;7.07;2.20;;;;;;;;;;5031256;28;20038;-85
2023/06/04 08:46:23;;;;;;;5.10;1.60;;;;;;;;;;5038077;28;20132;-84
2023/06/04 08:48:50;;;;;;;8.43;2.03;;;;;;;;;;5052520;28;20466;-86
2023/06/04 08:51:17;;;;;;;3.47;1.50;;;;;;;;;;5008668;28;20490;-87
2023/06/04 08:53:47;;;;;;;4.45;1.58;;;;;;;;;;5048326;28;20041;-87
2023/06/04 08:56:13;;;;;;;6.00;1.70;;;;;;;;;;5034817;28;20096;-87
2023/06/04 08:58:39;;;;;;;;;;;;;;;;;;5051061;28;20077;-87
2023/06/04 09:01:05;;;;;;;4.53;1.45;;;;;;;;;;5033651;28;19965;-88
2023/06/04 09:03:32;;;;;;;;;;;;;;;;;;5025322;28;20041;-88
2023/06/04 09:05:59;;;;;;;3.10;1.42;;;;;;;;;;5036661;28;20377;-87
2023/06/04 09:08:25;;;;;;;5.40;1.77;;;;;;;;;;5031860;28;20103;-87
2023/06/04 09:10:53;;;;;;;5.28;2.03;;;;;;;;;;5035263;28;20086;-85
2023/06/04 09:13:22;;;;;;;6.85;1.90;;;;;;;;;;5037763;28;20040;-85
2023/06/04 09:15:59;;;;;;;4.82;1.80;;;;;;;;;;5041209;28;20044;-84
2023/06/04 09:18:26;;;;;;;2.08;1.23;;;;;;;;;;5037370;28;20045;-85
2023/06/04 09:21:01;;;;;;;6.35;1.73;;;;;;;;;;5054234;28;20045;-85
2023/06/04 09:23:27;;;;;;;2.33;1.38;;;;;;;;;;5037515;28;20041;-86
2023/06/04 09:25:54;;;;;;;4.97;1.88;;;;;;;;;;5037669;28;20776;-85
2023/06/04 09:28:20;;;;;;;5.97;2.10;;;;;;;;;;5035994;28;20052;-85
2023/06/04 09:30:53;;;;;;;6.50;1.80;;;;;;;;;;5045710;28;20397;-87
2023/06/04 09:33:20;;;;;;;3.65;1.55;;;;;;;;;;5036781;28;20679;-89
2023/06/04 09:35:56;;;;;;;6.55;2.10;;;;;;;;;;5036239;28;20049;-81
2023/06/04 09:38:22;;;;;;;3.90;1.50;;;;;;;;;;5034734;28;20110;-67
2023/06/04 09:40:49;;;;;;;;;;;;;;;;;;5053456;28;20625;-68
2023/06/04 09:43:24;;;;;;;1.65;1.20;;;;;;;;;;5050615;28;20362;-69
2023/06/04 09:45:51;;;;;;;7.47;1.90;;;;;;;;;;5046226;28;20073;-67
2023/06/04 09:48:23;;;;;;;4.97;1.85;;;;;;;;;;5031345;28;20053;-67
2023/06/04 09:50:49;;;;;;;2.33;1.40;;;;;;;;;;5036804;28;20045;-67
2023/06/04 09:53:15;;;;;;;;;;;;;;;;;;5048965;28;20599;-70
2023/06/04 09:55:42;;;;;;;5.15;1.30;;;;;;;;;;5036069;28;19928;-70
2023/06/04 09:58:08;;;;;;;4.13;1.85;;;;;;;;;;5052988;28;20138;-70
2023/06/04 10:00:35;;;;;;;10.05;2.28;;;;;;;;;;5050371;28;20074;-71
2023/06/04 10:03:02;;;;;;;5.30;1.88;;;;;;;;;;5037501;28;20116;-70
2023/06/04 10:05:32;;;;;;;4.00;1.65;;;;;;;;;;5048333;28;20057;-70
2023/06/04 10:08:00;;;;;;;4.50;1.65;;;;;;;;;;5035835;28;20068;-70
2023/06/04 10:10:27;;;;;;;3.97;1.58;;;;;;;;;;5045029;28;20498;-66
2023/06/04 10:13:05;;;;;;;6.07;1.88;;;;;;;;;;5052504;28;20106;-66
2023/06/04 10:15:34;;;;;;;3.45;1.25;;;;;;;;;;5052188;28;20090;-66
2023/06/04 10:18:00;;;;;;;2.45;1.23;;;;;;;;;;5051296;28;20049;-66
2023/06/04 10:20:26;;;;;;;2.67;1.20;;;;;;;;;;5043912;28;20049;-66
2023/06/04 10:22:52;;;;;;;;;;;;;;;;;;5046641;28;20146;-67
2023/06/04 10:25:18;;;;;;;4.82;1.48;;;;;;;;;;5052555;28;19924;-66
2023/06/04 10:27:46;;;;;;;3.00;1.52;;;;;;;;;;5051670;28;20049;-66
2023/06/04 10:30:12;;;;;;;4.07;1.60;;;;;;;;;;5050660;28;20041;-67
2023/06/04 10:32:38;;;;;;;2.53;1.33;;;;;;;;;;5037411;28;20045;-66
2023/06/04 10:35:06;;;;;;;;;;;;;;;;;;5044582;28;20064;-66
2023/06/04 10:37:32;;;;;;;2.53;1.20;;;;;;;;;;5042544;28;19990;-66
2023/06/04 10:39:58;;;;;;;;;;;;;;;;;;5051772;28;20041;-66
2023/06/04 10:42:24;;;;;;;4.68;1.40;;;;;;;;;;5051620;28;20362;-68
2023/06/04 10:44:55;;;;;;;4.40;1.85;;;;;;;;;;5051730;28;20047;-67
2023/06/04 10:47:25;;;;;;;5.85;1.90;;;;;;;;;;5051210;28;20076;-68
2023/06/04 10:49:51;;;;;;;4.35;1.50;;;;;;;;;;5050772;28;20047;-66
2023/06/04 10:52:18;;;;;;;4.68;1.45;;;;;;;;;;5043736;28;20050;-67
2023/06/04 10:54:46;;;;;;;4.68;1.58;;;;;;;;;;5051101;28;20044;-67
2023/06/04 10:57:16;;;;;;;4.13;1.20;;;;;;;;;;5048963;28;20395;-72
2023/06/04 10:59:53;;;;;;;6.63;1.90;;;;;;;;;;5041234;28;20084;-69
2023/06/04 11:02:19;;;;;;;4.45;1.55;;;;;;;;;;5049625;28;20052;-71
2023/06/04 11:04:45;;;;;;;;;;;;;;;;;;5050011;28;20053;-71
2023/06/04 11:07:11;;;;;;;4.50;1.30;;;;;;;;;;5051473;28;19920;-76
2023/06/04 11:09:50;;;;;;;12.93;2.63;;;;;;;;;;5050492;28;20063;-83
2023/06/04 11:12:16;;;;;;;8.90;1.70;;;;;;;;;;5035182;28;20057;-80
2023/06/04 11:14:54;;;;;;;6.45;1.50;;;;;;;;;;5030879;28;20052;-81
2023/06/04 11:17:20;;;;;;;5.18;1.70;;;;;;;;;;5031215;28;20373;-85
2023/06/04 11:19:46;;;;;;;;;;;;;;;;;;5014599;28;20053;-81
2023/06/04 11:22:12;;;;;;;8.35;1.92;;;;;;;;;;5051286;28;19921;-84
2023/06/04 11:24:38;;;;;;;2.45;1.40;;;;;;;;;;5050315;28;20076;-88
2023/06/04 11:27:05;;;;;;;6.43;1.83;;;;;;;;;;5067859;28;20049;-78
2023/06/04 11:29:31;;;;;;;3.85;1.48;;;;;;;;;;5030909;28;20054;-78
2023/06/04 11:31:57;;;;;;;;;;;;;;;;;;5033264;28;20076;-78
2023/06/04 11:34:27;;;;;;;3.42;1.50;;;;;;;;;;5032485;28;19939;-81
2023/06/04 11:36:53;;;;;;;5.78;2.50;;;;;;;;;;5040236;28;20049;-78
2023/06/04 11:39:20;;;;;;;7.28;2.10;;;;;;;;;;5051595;28;20091;-78
2023/06/04 11:41:46;;;;;;;5.55;1.88;;;;;;;;;;5051520;28;20059;-79
2023/06/04 11:44:13;;;;;;;3.70;1.45;;;;;;;;;;5051110;28;20129;-79
2023/06/04 11:46:43;;;;;;;3.58;1.42;;;;;;;;;;5038380;28;20115;-80
2023/06/04 11:49:12;;;;;;;4.90;1.23;;;;;;;;;;5063999;28;20061;-78
2023/06/04 11:51:38;;;;;;;3.72;1.70;;;;;;;;;;5064748;28;20475;-80
2023/06/04 11:54:04;;;;;;;3.38;1.20;;;;;;;;;;5051382;28;20040;-79
2023/06/04 11:56:30;;;;;;;4.82;1.42;;;;;;;;;;5033188;28;20098;-83
2023/06/04 11:58:57;;;;;;;3.15;1.30;;;;;;;;;;5065317;28;20052;-80
2023/06/04 12:01:23;;;;;;;7.20;1.80;;;;;;;;;;5031212;28;20053;-80
2023/06/04 12:03:49;;;;;;;9.30;1.50;;;;;;;;;;5013407;28;20057;-82
2023/06/04 12:06:16;;;;;;;5.95;1.73;;;;;;;;;;5030664;28;20111;-80
2023/06/04 12:08:49;;;;;;;4.68;1.67;;;;;;;;;;5014092;28;20064;-81
2023/06/04 12:11:30;;;;;;;3.55;1.50;;;;;;;;;;5030342;28;20499;-79
2023/06/04 12:13:57;;;;;;;3.22;1.50;;;;;;;;;;5030213;28;20057;-82
2023/06/04 12:16:23;;;;;;;5.93;1.52;;;;;;;;;;5039946;28;20044;-81
2023/06/04 12:18:50;;;;;;;4.15;1.40;;;;;;;;;;5049259;28;20235;-80
2023/06/04 12:21:26;;;;;;;4.35;1.70;;;;;;;;;;5050353;28;20057;-79
2023/06/04 12:24:11;;;;;;;2.67;1.27;;;;;;;;;;5051818;28;20277;-79
2023/06/04 12:26:40;;;;;;;2.90;1.40;;;;;;;;;;5050876;28;20429;-79
2023/06/04 12:29:13;;;;;;;3.28;1.33;;;;;;;;;;5051168;28;20123;-79
2023/06/04 12:31:40;;;;;;;2.97;1.70;;;;;;;;;;5051156;28;20060;-80
2023/06/04 12:34:06;;;;;;;3.47;1.50;;;;;;;;;;5050610;28;20064;-79
2023/06/04 12:36:35;;;;;;;3.90;1.48;;;;;;;;;;5047160;28;20049;-80
2023/06/04 12:39:02;;;;;;;4.95;1.30;;;;;;;;;;5079158;28;20041;-86
2023/06/04 12:41:29;;;;;;;4.72;1.40;;;;;;;;;;5006243;28;20051;-83
2023/06/04 12:43:55;;;;;;;3.13;1.30;;;;;;;;;;5024253;28;20046;-85
2023/06/04 12:46:22;;;;;;;3.40;1.27;;;;;;;;;;5040489;28;20130;-83
2023/06/04 12:48:49;;;;;;;2.63;1.10;;;;;;;;;;5048341;28;20167;-83
2023/06/04 12:51:15;;;;;;;3.95;1.20;;;;;;;;;;5039499;28;20045;-82
2023/06/04 12:53:41;;;;;;;3.58;1.48;;;;;;;;;;5047572;28;20127;-83
2023/06/04 12:56:08;;;;;;;3.28;1.80;;;;;;;;;;5038457;28;20242;-82
2023/06/04 12:58:34;;;;;;;3.95;1.50;;;;;;;;;;5018643;28;20049;-86
2023/06/04 13:01:00;;;;;;;3.38;1.25;;;;;;;;;;5030264;28;20128;-82
2023/06/04 13:03:27;;;;;;;1.25;0.90;;;;;;;;;;5028068;28;20435;-82
2023/06/04 13:05:53;;;;;;;1.48;1.10;;;;;;;;;;5032448;28;20052;-80
2023/06/04 13:08:23;;;;;;;3.95;1.65;;;;;;;;;;5045212;28;20049;-66
2023/06/04 13:10:50;;;;;;;3.72;1.38;;;;;;;;;;5042740;28;20486;-84
2023/06/04 13:13:16;;;;;;;3.33;1.60;;;;;;;;;;5049599;28;20049;-86
2023/06/04 13:15:43;;;;;;;4.95;1.55;;;;;;;;;;5034586;28;20087;-82
2023/06/04 13:18:09;;;;;;;4.15;1.60;;;;;;;;;;5016899;28;20084;-82
2023/06/04 13:20:40;;;;;;;2.97;1.50;;;;;;;;;;5047426;28;20057;-82
2023/06/04 13:23:06;;;;;;;3.92;1.45;;;;;;;;;;5045269;28;20045;-82
2023/06/04 13:25:33;;;;;;;5.97;1.38;;;;;;;;;;5031424;28;20045;-81
2023/06/04 13:28:02;;;;;;;1.98;1.15;;;;;;;;;;5033923;28;20136;-82
2023/06/04 13:30:28;;;;;;;4.63;1.65;;;;;;;;;;5032068;28;20057;-82
2023/06/04 13:32:55;;;;;;;3.03;1.30;;;;;;;;;;5031304;28;20045;-82
2023/06/04 13:35:21;;;;;;;4.13;1.40;;;;;;;;;;5021509;28;20486;-82
2023/06/04 13:37:47;;;;;;;3.00;1.35;;;;;;;;;;5048496;28;20052;-82
2023/06/04 13:40:14;;;;;;;4.10;1.27;;;;;;;;;;5052847;28;20055;-82
2023/06/04 13:42:40;;;;;;;3.17;1.35;;;;;;;;;;5048461;28;20410;-82
2023/06/04 13:45:06;;;;;;;4.45;1.63;;;;;;;;;;5047934;28;20042;-83
2023/06/04 13:47:32;;;;;;;3.50;1.58;;;;;;;;;;5030204;28;20570;-83
2023/06/04 13:49:59;;;;;;;2.92;1.30;;;;;;;;;;5029727;28;20048;-82
2023/06/04 13:52:25;;;;;;;2.38;1.50;;;;;;;;;;5031780;28;20512;-84
2023/06/04 13:54:51;;;;;;;3.05;1.45;;;;;;;;;;5069602;28;20060;-84
2023/06/04 13:57:17;;;;;;;2.80;1.35;;;;;;;;;;5051422;28;20394;-84
2023/06/04 13:59:43;;;;;;;5.97;1.70;;;;;;;;;;5051050;28;20608;-67
2023/06/04 14:02:09;;;;;;;3.55;1.75;;;;;;;;;;5034723;28;20119;-68
2023/06/04 14:04:35;;;;;;;1.58;1.00;;;;;;;;;;5048824;28;20395;-67
2023/06/04 14:07:02;;;;;;;2.92;1.20;;;;;;;;;;5043025;28;20056;-68
2023/06/04 14:09:28;;;;;;;2.95;1.50;;;;;;;;;;5046130;28;20466;-67
2023/06/04 14:11:54;;;;;;;5.03;1.40;;;;;;;;;;5050218;28;20045;-67
2023/06/04 14:14:21;;;;;;;6.18;1.83;;;;;;;;;;5047892;28;20052;-68
2023/06/04 14:16:47;;;;;;;3.75;1.30;;;;;;;;;;5071211;28;20470;-67
2023/06/04 14:19:14;;;;;;;3.28;1.70;;;;;;;;;;5049653;28;20048;-68
2023/06/04 14:21:41;;;;;;;2.28;1.38;;;;;;;;;;5044435;28;20045;-67
2023/06/04 14:24:07;;;;;;;3.22;1.42;;;;;;;;;;5035608;28;20045;-68
2023/06/04 14:26:33;;;;;;;3.63;1.63;;;;;;;;;;5031576;28;20045;-68
2023/06/04 14:28:59;;;;;;;3.88;1.52;;;;;;;;;;5039261;28;20057;-68
2023/06/04 14:31:25;;;;;;;4.25;1.45;;;;;;;;;;5041218;28;20045;-68
2023/06/04 14:33:51;;;;;;;4.22;1.50;;;;;;;;;;5032922;28;20044;-68
2023/06/04 14:36:17;;;;;;;3.20;1.63;;;;;;;;;;5029917;28;20116;-68
2023/06/04 14:38:44;;;;;;;2.88;1.60;;;;;;;;;;5031166;28;20049;-70
2023/06/04 14:41:10;;;;;;;4.85;1.60;;;;;;;;;;5041824;28;20053;-68
2023/06/04 14:43:36;;;;;;;2.22;1.13;;;;;;;;;;5045281;28;20044;-86
2023/06/04 14:46:03;;;;;;;3.28;1.60;;;;;;;;;;5035019;28;20078;-85
2023/06/04 14:48:29;;;;;;;4.22;1.38;;;;;;;;;;5035866;28;20533;-85
2023/06/04 14:50:55;;;;;;;3.97;1.30;;;;;;;;;;5075885;28;20061;-85